sensor_id;sensor_type;location;lat;lon;timestamp;pressure;altitude;pressure_sealevel;temperature;humidity
40384;BME280;26097;42.366;23.818;2022-10-18T00:01:46;95660.06;;;1.22;100.00
40384;BME280;26097;42.366;23.818;2022-10-18T00:04:46;95661.88;;;1.14;100.00
40384;BME280;26097;42.366;23.818;2022-10-18T00:07:46;95661.91;;;1.12;100.00
40384;BME280;26097;42.366;23.818;2022-10-18T00:10:47;95663.56;;;1.15;100.00
40384;BME280;26097;42.366;23.818;2022-10-18T00:13:48;95654.25;;;1.09;100.00
40384;BME280;26097;42.366;23.818;2022-10-18T00:16:48;95656.78;;;1.11;100.00
40384;BME280;26097;42.366;23.818;2022-10-18T00:19:48;95654.31;;;1.05;100.00
40384;BME280;26097;42.366;23.818;2022-10-18T00:22:49;95650.09;;;1.01;100.00
40384;BME280;26097;42.366;23.818;2022-10-18T00:25:58;95645.88;;;0.95;100.00
40384;BME280;26097;42.366;23.818;2022-10-18T00:29:01;95645.88;;;0.93;100.00
40384;BME280;26097;42.366;23.818;2022-10-18T00:32:01;95641.72;;;0.86;100.00
40384;BME280;26097;42.366;23.818;2022-10-18T00:35:02;95634.91;;;0.82;100.00
40384;BME280;26097;42.366;23.818;2022-10-18T00:38:03;95642.72;;;0.74;100.00
40384;BME280;26097;42.366;23.818;2022-10-18T00:41:05;95633.28;;;0.75;100.00
40384;BME280;26097;42.366;23.818;2022-10-18T00:47:26;95624.81;;;0.68;100.00
40384;BME280;26097;42.366;23.818;2022-10-18T00:50:30;95627.31;;;0.73;100.00
40384;BME280;26097;42.366;23.818;2022-10-18T00:53:31;95624.78;;;0.69;100.00
40384;BME280;26097;42.366;23.818;2022-10-18T00:56:33;95619.66;;;0.71;100.00
40384;BME280;26097;42.366;23.818;2022-10-18T00:59:34;95616.34;;;0.61;100.00
40384;BME280;26097;42.366;23.818;2022-10-18T01:02:37;95612.09;;;0.59;100.00
40384;BME280;26097;42.366;23.818;2022-10-18T01:05:42;95612.19;;;0.52;100.00
40384;BME280;26097;42.366;23.818;2022-10-18T01:21:43;95594.22;;;0.51;100.00
40384;BME280;26097;42.366;23.818;2022-10-18T01:31:20;95584.97;;;0.37;100.00
40384;BME280;26097;42.366;23.818;2022-10-18T01:34:23;95584.09;;;0.38;100.00
40384;BME280;26097;42.366;23.818;2022-10-18T01:37:26;95585.00;;;0.34;100.00
40384;BME280;26097;42.366;23.818;2022-10-18T01:40:28;95584.97;;;0.39;100.00
40384;BME280;26097;42.366;23.818;2022-10-18T01:43:31;95579.88;;;0.36;100.00
40384;BME280;26097;42.366;23.818;2022-10-18T01:46:33;95589.28;;;0.35;100.00
40384;BME280;26097;42.366;23.818;2022-10-18T01:49:34;95581.66;;;0.31;100.00
40384;BME280;26097;42.366;23.818;2022-10-18T01:52:34;95585.06;;;0.33;100.00
40384;BME280;26097;42.366;23.818;2022-10-18T01:55:42;95582.41;;;0.37;100.00
40384;BME280;26097;42.366;23.818;2022-10-18T02:05:31;95585.91;;;0.32;100.00
40384;BME280;26097;42.366;23.818;2022-10-18T02:08:46;95585.91;;;0.32;100.00
40384;BME280;26097;42.366;23.818;2022-10-18T02:11:48;95584.22;;;0.31;100.00
40384;BME280;26097;42.366;23.818;2022-10-18T02:14:53;95589.34;;;0.29;100.00
40384;BME280;26097;42.366;23.818;2022-10-18T02:17:54;95585.19;;;0.22;100.00
40384;BME280;26097;42.366;23.818;2022-10-18T02:20:55;95587.75;;;0.22;100.00
40384;BME280;26097;42.366;23.818;2022-10-18T02:23:58;95592.09;;;0.15;100.00
40384;BME280;26097;42.366;23.818;2022-10-18T02:27:00;95586.88;;;0.21;100.00
40384;BME280;26097;42.366;23.818;2022-10-18T02:30:01;95590.34;;;0.16;100.00
40384;BME280;26097;42.366;23.818;2022-10-18T02:33:06;95592.88;;;0.19;100.00
40384;BME280;26097;42.366;23.818;2022-10-18T02:36:16;95585.19;;;0.19;100.00
40384;BME280;26097;42.366;23.818;2022-10-18T02:39:30;95580.97;;;0.14;100.00
40384;BME280;26097;42.366;23.818;2022-10-18T02:42:43;95574.09;;;0.17;100.00
40384;BME280;26097;42.366;23.818;2022-10-18T02:45:44;95566.50;;;0.09;100.00
40384;BME280;26097;42.366;23.818;2022-10-18T02:48:44;95575.00;;;0.12;100.00
40384;BME280;26097;42.366;23.818;2022-10-18T02:51:44;95574.25;;;0.04;100.00
40384;BME280;26097;42.366;23.818;2022-10-18T02:54:45;95581.13;;;-0.01;100.00
40384;BME280;26097;42.366;23.818;2022-10-18T02:57:45;95583.72;;;-0.04;100.00
40384;BME280;26097;42.366;23.818;2022-10-18T03:00:48;95580.25;;;0.02;100.00
40384;BME280;26097;42.366;23.818;2022-10-18T03:03:49;95585.31;;;0.08;100.00
40384;BME280;26097;42.366;23.818;2022-10-18T03:06:50;95580.22;;;0.05;100.00
40384;BME280;26097;42.366;23.818;2022-10-18T03:09:50;95576.00;;;-0.01;100.00
40384;BME280;26097;42.366;23.818;2022-10-18T03:12:50;95583.75;;;-0.07;100.00
40384;BME280;26097;42.366;23.818;2022-10-18T03:15:51;95577.81;;;-0.09;100.00
40384;BME280;26097;42.366;23.818;2022-10-18T03:18:51;95574.41;;;-0.11;100.00
40384;BME280;26097;42.366;23.818;2022-10-18T03:21:51;95572.63;;;-0.06;100.00
40384;BME280;26097;42.366;23.818;2022-10-18T03:24:52;95580.31;;;-0.06;100.00
40384;BME280;26097;42.366;23.818;2022-10-18T03:27:53;95572.66;;;-0.09;100.00
40384;BME280;26097;42.366;23.818;2022-10-18T03:30:59;95570.13;;;-0.11;100.00
40384;BME280;26097;42.366;23.818;2022-10-18T03:34:00;95577.91;;;-0.19;100.00
40384;BME280;26097;42.366;23.818;2022-10-18T03:37:00;95584.75;;;-0.24;100.00
40384;BME280;26097;42.366;23.818;2022-10-18T03:40:01;95580.47;;;-0.19;100.00
40384;BME280;26097;42.366;23.818;2022-10-18T03:43:01;95581.34;;;-0.23;100.00
40384;BME280;26097;42.366;23.818;2022-10-18T03:46:02;95579.59;;;-0.18;100.00
40384;BME280;26097;42.366;23.818;2022-10-18T03:49:02;95576.19;;;-0.20;100.00
40384;BME280;26097;42.366;23.818;2022-10-18T03:52:03;95583.03;;;-0.22;100.00
40384;BME280;26097;42.366;23.818;2022-10-18T03:55:04;95569.44;;;-0.27;100.00
40384;BME280;26097;42.366;23.818;2022-10-18T03:58:04;95577.19;;;-0.33;100.00
40384;BME280;26097;42.366;23.818;2022-10-18T04:01:05;95572.03;;;-0.30;100.00
40384;BME280;26097;42.366;23.818;2022-10-18T04:04:06;95575.44;;;-0.31;100.00
40384;BME280;26097;42.366;23.818;2022-10-18T04:07:06;95579.78;;;-0.36;100.00
40384;BME280;26097;42.366;23.818;2022-10-18T04:10:07;95575.53;;;-0.40;100.00
40384;BME280;26097;42.366;23.818;2022-10-18T04:13:08;95564.50;;;-0.47;100.00
40384;BME280;26097;42.366;23.818;2022-10-18T04:16:08;95565.28;;;-0.39;100.00
40384;BME280;26097;42.366;23.818;2022-10-18T04:19:09;95562.72;;;-0.40;100.00
40384;BME280;26097;42.366;23.818;2022-10-18T04:22:09;95569.53;;;-0.36;100.00
40384;BME280;26097;42.366;23.818;2022-10-18T04:25:11;95565.25;;;-0.36;100.00
40384;BME280;26097;42.366;23.818;2022-10-18T04:28:11;95566.94;;;-0.35;100.00
40384;BME280;26097;42.366;23.818;2022-10-18T04:31:12;95562.66;;;-0.34;100.00
40384;BME280;26097;42.366;23.818;2022-10-18T04:34:12;95556.72;;;-0.39;100.00
40384;BME280;26097;42.366;23.818;2022-10-18T04:37:12;95561.00;;;-0.41;100.00
40384;BME280;26097;42.366;23.818;2022-10-18T04:40:13;95561.03;;;-0.45;100.00
40384;BME280;26097;42.366;23.818;2022-10-18T04:43:13;95555.13;;;-0.50;100.00
40384;BME280;26097;42.366;23.818;2022-10-18T04:46:14;95557.63;;;-0.44;100.00
40384;BME280;26097;42.366;23.818;2022-10-18T04:49:14;95569.56;;;-0.43;100.00
40384;BME280;26097;42.366;23.818;2022-10-18T04:52:15;95558.44;;;-0.40;100.00
40384;BME280;26097;42.366;23.818;2022-10-18T04:55:15;95563.56;;;-0.38;100.00
40384;BME280;26097;42.366;23.818;2022-10-18T04:58:16;95556.69;;;-0.35;100.00
40384;BME280;26097;42.366;23.818;2022-10-18T05:01:17;95568.66;;;-0.35;100.00
40384;BME280;26097;42.366;23.818;2022-10-18T05:04:18;95563.47;;;-0.31;100.00
40384;BME280;26097;42.366;23.818;2022-10-18T05:07:18;95559.22;;;-0.30;100.00
40384;BME280;26097;42.366;23.818;2022-10-18T05:10:19;95560.03;;;-0.28;100.00
40384;BME280;26097;42.366;23.818;2022-10-18T05:13:19;95567.66;;;-0.22;100.00
40384;BME280;26097;42.366;23.818;2022-10-18T05:16:19;95562.53;;;-0.19;100.00
40384;BME280;26097;42.366;23.818;2022-10-18T05:19:20;95565.84;;;-0.10;100.00
40384;BME280;26097;42.366;23.818;2022-10-18T05:22:20;95565.75;;;-0.01;100.00
40384;BME280;26097;42.366;23.818;2022-10-18T05:25:21;95568.19;;;0.13;100.00
40384;BME280;26097;42.366;23.818;2022-10-18T05:28:21;95574.09;;;0.20;100.00
40384;BME280;26097;42.366;23.818;2022-10-18T05:31:23;95568.84;;;0.29;100.00
40384;BME280;26097;42.366;23.818;2022-10-18T05:34:24;95572.16;;;0.37;100.00
40384;BME280;26097;42.366;23.818;2022-10-18T05:37:26;95570.31;;;0.49;100.00
40384;BME280;26097;42.366;23.818;2022-10-18T05:40:26;95573.50;;;0.66;100.00
40384;BME280;26097;42.366;23.818;2022-10-18T05:43:27;95574.09;;;0.85;100.00
40384;BME280;26097;42.366;23.818;2022-10-18T05:46:28;95575.50;;;1.08;100.00
40384;BME280;26097;42.366;23.818;2022-10-18T05:49:28;95576.88;;;1.30;100.00
40384;BME280;26097;42.366;23.818;2022-10-18T05:52:28;95570.59;;;1.49;100.00
40384;BME280;26097;42.366;23.818;2022-10-18T05:55:29;95564.31;;;1.67;100.00
40384;BME280;26097;42.366;23.818;2022-10-18T05:58:29;95569.06;;;1.88;100.00
40384;BME280;26097;42.366;23.818;2022-10-18T06:01:30;95560.97;;;2.09;100.00
40384;BME280;26097;42.366;23.818;2022-10-18T06:04:30;95563.13;;;2.31;100.00
40384;BME280;26097;42.366;23.818;2022-10-18T06:07:30;95571.25;;;2.53;100.00
40384;BME280;26097;42.366;23.818;2022-10-18T06:10:31;95570.88;;;2.72;100.00
40384;BME280;26097;42.366;23.818;2022-10-18T06:13:31;95578.22;;;2.89;100.00
40384;BME280;26097;42.366;23.818;2022-10-18T06:16:32;95577.84;;;3.08;100.00
40384;BME280;26097;42.366;23.818;2022-10-18T06:19:33;95577.50;;;3.23;100.00
40384;BME280;26097;42.366;23.818;2022-10-18T06:22:34;95584.88;;;3.37;100.00
40384;BME280;26097;42.366;23.818;2022-10-18T06:25:34;95570.03;;;3.49;100.00
40384;BME280;26097;42.366;23.818;2022-10-18T06:28:36;95570.56;;;3.62;100.00
40384;BME280;26097;42.366;23.818;2022-10-18T06:31:36;95565.91;;;3.76;100.00
40384;BME280;26097;42.366;23.818;2022-10-18T06:34:37;95572.44;;;3.90;100.00
40384;BME280;26097;42.366;23.818;2022-10-18T06:37:37;95572.03;;;4.05;100.00
40384;BME280;26097;42.366;23.818;2022-10-18T06:40:38;95571.59;;;4.22;100.00
40384;BME280;26097;42.366;23.818;2022-10-18T06:43:38;95573.75;;;4.38;100.00
40384;BME280;26097;42.366;23.818;2022-10-18T06:46:48;95569.03;;;4.54;100.00
40384;BME280;26097;42.366;23.818;2022-10-18T06:49:48;95570.34;;;4.67;100.00
40384;BME280;26097;42.366;23.818;2022-10-18T06:52:51;95564.66;;;4.86;100.00
40384;BME280;26097;42.366;23.818;2022-10-18T06:55:52;95567.66;;;5.00;100.00
40384;BME280;26097;42.366;23.818;2022-10-18T06:58:52;95560.34;;;5.15;100.00
40384;BME280;26097;42.366;23.818;2022-10-18T07:01:52;95553.88;;;5.28;100.00
40384;BME280;26097;42.366;23.818;2022-10-18T07:04:53;95557.56;;;5.48;100.00
40384;BME280;26097;42.366;23.818;2022-10-18T07:07:53;95550.13;;;5.66;100.00
40384;BME280;26097;42.366;23.818;2022-10-18T07:10:54;95547.81;;;5.83;100.00
40384;BME280;26097;42.366;23.818;2022-10-18T07:13:58;95548.91;;;6.03;100.00
40384;BME280;26097;42.366;23.818;2022-10-18T07:17:02;95534.56;;;6.18;100.00
40384;BME280;26097;42.366;23.818;2022-10-18T07:20:02;95537.25;;;6.40;100.00
40384;BME280;26097;42.366;23.818;2022-10-18T07:23:03;95535.56;;;6.63;100.00
40384;BME280;26097;42.366;23.818;2022-10-18T07:29:15;95523.91;;;6.97;100.00
40384;BME280;26097;42.366;23.818;2022-10-18T07:32:16;95514.94;;;7.28;100.00
40384;BME280;26097;42.366;23.818;2022-10-18T07:35:16;95509.78;;;7.49;100.00
40384;BME280;26097;42.366;23.818;2022-10-18T07:38:17;95508.91;;;7.71;100.00
40384;BME280;26097;42.366;23.818;2022-10-18T07:41:17;95510.97;;;7.83;100.00
40384;BME280;26097;42.366;23.818;2022-10-18T07:44:18;95504.63;;;8.11;100.00
40384;BME280;26097;42.366;23.818;2022-10-18T07:47:18;95504.00;;;8.25;100.00
40384;BME280;26097;42.366;23.818;2022-10-18T07:50:19;95499.25;;;8.35;100.00
40384;BME280;26097;42.366;23.818;2022-10-18T07:53:19;95487.44;;;8.47;100.00
40384;BME280;26097;42.366;23.818;2022-10-18T07:56:20;95488.28;;;8.68;100.00
40384;BME280;26097;42.366;23.818;2022-10-18T07:59:21;95489.38;;;8.82;100.00
40384;BME280;26097;42.366;23.818;2022-10-18T08:02:24;95486.78;;;9.01;100.00
40384;BME280;26097;42.366;23.818;2022-10-18T08:05:25;95478.31;;;9.15;100.00
40384;BME280;26097;42.366;23.818;2022-10-18T08:08:27;95473.56;;;9.23;100.00
40384;BME280;26097;42.366;23.818;2022-10-18T08:11:27;95474.81;;;9.34;100.00
40384;BME280;26097;42.366;23.818;2022-10-18T08:14:28;95471.09;;;9.57;100.00
40384;BME280;26097;42.366;23.818;2022-10-18T08:17:28;95467.94;;;9.68;100.00
40384;BME280;26097;42.366;23.818;2022-10-18T08:20:28;95466.09;;;9.70;100.00
40384;BME280;26097;42.366;23.818;2022-10-18T08:23:31;95463.94;;;9.78;100.00
40384;BME280;26097;42.366;23.818;2022-10-18T08:26:31;95469.88;;;9.98;100.00
40384;BME280;26097;42.366;23.818;2022-10-18T08:29:32;95458.34;;;10.20;100.00
40384;BME280;26097;42.366;23.818;2022-10-18T08:32:32;95463.91;;;10.29;100.00
40384;BME280;26097;42.366;23.818;2022-10-18T08:35:32;95460.78;;;10.40;98.54
40384;BME280;26097;42.366;23.818;2022-10-18T08:38:37;95453.91;;;10.55;98.01
40384;BME280;26097;42.366;23.818;2022-10-18T08:45:00;95443.22;;;10.92;96.78
40384;BME280;26097;42.366;23.818;2022-10-18T08:48:00;95445.00;;;10.92;96.27
40384;BME280;26097;42.366;23.818;2022-10-18T08:51:03;95444.47;;;11.17;93.11
40384;BME280;26097;42.366;23.818;2022-10-18T08:54:12;95433.09;;;11.18;95.22
40384;BME280;26097;42.366;23.818;2022-10-18T08:57:14;95428.47;;;11.23;91.80
40384;BME280;26097;42.366;23.818;2022-10-18T09:00:19;95442.66;;;11.34;91.79
40384;BME280;26097;42.366;23.818;2022-10-18T09:21:00;95414.44;;;11.85;88.59
40384;BME280;26097;42.366;23.818;2022-10-18T09:24:14;95411.75;;;12.02;85.64
40384;BME280;26097;42.366;23.818;2022-10-18T09:27:19;95406.06;;;12.09;86.66
40384;BME280;26097;42.366;23.818;2022-10-18T09:30:34;95404.19;;;12.40;85.01
40384;BME280;26097;42.366;23.818;2022-10-18T09:33:39;95402.78;;;12.49;85.12
40384;BME280;26097;42.366;23.818;2022-10-18T09:36:42;95400.25;;;12.48;69.57
40384;BME280;26097;42.366;23.818;2022-10-18T09:39:44;95401.53;;;12.55;66.76
40384;BME280;26097;42.366;23.818;2022-10-18T09:45:54;95393.28;;;12.76;64.45
40384;BME280;26097;42.366;23.818;2022-10-18T09:49:01;95382.31;;;13.11;62.12
40384;BME280;26097;42.366;23.818;2022-10-18T09:52:06;95378.59;;;13.28;61.79
40384;BME280;26097;42.366;23.818;2022-10-18T09:55:21;95379.59;;;13.53;59.85
40384;BME280;26097;42.366;23.818;2022-10-18T09:58:24;95378.38;;;13.84;59.69
40384;BME280;26097;42.366;23.818;2022-10-18T10:01:28;95370.81;;;13.93;59.32
40384;BME280;26097;42.366;23.818;2022-10-18T10:04:29;95364.28;;;14.11;59.89
40384;BME280;26097;42.366;23.818;2022-10-18T10:07:34;95353.69;;;14.26;59.06
40384;BME280;26097;42.366;23.818;2022-10-18T10:10:45;95347.63;;;14.25;58.88
40384;BME280;26097;42.366;23.818;2022-10-18T10:13:47;95340.44;;;14.40;58.26
40384;BME280;26097;42.366;23.818;2022-10-18T10:17:03;95331.41;;;14.45;55.52
40384;BME280;26097;42.366;23.818;2022-10-18T10:20:18;95329.66;;;14.56;55.45
40384;BME280;26097;42.366;23.818;2022-10-18T10:26:32;95321.38;;;14.87;53.89
40384;BME280;26097;42.366;23.818;2022-10-18T10:32:48;95315.66;;;14.82;51.65
40384;BME280;26097;42.366;23.818;2022-10-18T10:35:57;95312.88;;;15.08;50.82
40384;BME280;26097;42.366;23.818;2022-10-18T10:39:12;95294.41;;;15.21;51.89
40384;BME280;26097;42.366;23.818;2022-10-18T10:42:17;95300.22;;;15.13;53.70
40384;BME280;26097;42.366;23.818;2022-10-18T10:45:19;95282.50;;;15.28;53.14
40384;BME280;26097;42.366;23.818;2022-10-18T10:48:21;95282.66;;;15.38;52.05
40384;BME280;26097;42.366;23.818;2022-10-18T10:54:29;95274.31;;;15.55;50.32
40384;BME280;26097;42.366;23.818;2022-10-18T10:57:35;95263.66;;;15.80;47.40
40384;BME280;26097;42.366;23.818;2022-10-18T11:00:42;95269.53;;;15.83;48.21
40384;BME280;26097;42.366;23.818;2022-10-18T11:03:45;95264.88;;;15.87;48.53
40384;BME280;26097;42.366;23.818;2022-10-18T11:10:13;95251.13;;;16.18;48.36
40384;BME280;26097;42.366;23.818;2022-10-18T11:16:38;95227.31;;;16.19;47.70
40384;BME280;26097;42.366;23.818;2022-10-18T11:23:15;95221.72;;;16.12;47.62
40384;BME280;26097;42.366;23.818;2022-10-18T11:29:46;95219.03;;;16.35;46.73
40384;BME280;26097;42.366;23.818;2022-10-18T11:39:17;95208.25;;;16.38;45.60
40384;BME280;26097;42.366;23.818;2022-10-18T11:42:21;95202.28;;;16.69;45.93
40384;BME280;26097;42.366;23.818;2022-10-18T12:02:43;95158.00;;;17.26;44.21
40384;BME280;26097;42.366;23.818;2022-10-18T12:05:49;95155.78;;;17.22;42.96
40384;BME280;26097;42.366;23.818;2022-10-18T12:08:57;95149.78;;;17.10;42.93
40384;BME280;26097;42.366;23.818;2022-10-18T12:12:08;95140.41;;;17.27;44.07
40384;BME280;26097;42.366;23.818;2022-10-18T12:18:16;95137.72;;;17.48;41.05
40384;BME280;26097;42.366;23.818;2022-10-18T12:21:21;95121.91;;;17.48;41.88
40384;BME280;26097;42.366;23.818;2022-10-18T12:24:27;95129.00;;;17.58;42.81
40384;BME280;26097;42.366;23.818;2022-10-18T12:27:47;95122.34;;;17.53;41.32
40384;BME280;26097;42.366;23.818;2022-10-18T12:33:57;95118.38;;;17.69;41.42
40384;BME280;26097;42.366;23.818;2022-10-18T12:40:16;95117.38;;;17.60;41.12
40384;BME280;26097;42.366;23.818;2022-10-18T12:43:24;95103.28;;;17.40;41.35
40384;BME280;26097;42.366;23.818;2022-10-18T12:46:43;95104.31;;;17.59;38.17
40384;BME280;26097;42.366;23.818;2022-10-18T12:49:54;95101.44;;;17.72;40.11
40384;BME280;26097;42.366;23.818;2022-10-18T12:53:24;95098.63;;;17.53;40.23
40384;BME280;26097;42.366;23.818;2022-10-18T13:02:29;95097.84;;;17.82;39.03
40384;BME280;26097;42.366;23.818;2022-10-18T13:05:56;95091.75;;;17.82;38.76
40384;BME280;26097;42.366;23.818;2022-10-18T13:09:20;95093.41;;;17.83;40.43
40384;BME280;26097;42.366;23.818;2022-10-18T13:15:45;95080.25;;;17.93;39.41
40384;BME280;26097;42.366;23.818;2022-10-18T13:25:24;95076.75;;;17.92;39.24
40384;BME280;26097;42.366;23.818;2022-10-18T13:44:45;95060.00;;;18.03;38.45
40384;BME280;26097;42.366;23.818;2022-10-18T13:47:45;95061.81;;;18.12;36.91
40384;BME280;26097;42.366;23.818;2022-10-18T13:50:46;95060.56;;;18.17;38.51
40384;BME280;26097;42.366;23.818;2022-10-18T13:53:57;95052.94;;;18.13;37.91
40384;BME280;26097;42.366;23.818;2022-10-18T14:06:41;95052.31;;;18.00;38.41
40384;BME280;26097;42.366;23.818;2022-10-18T14:09:52;95040.41;;;17.86;37.77
40384;BME280;26097;42.366;23.818;2022-10-18T14:12:56;95041.06;;;17.78;38.52
40384;BME280;26097;42.366;23.818;2022-10-18T14:16:09;95044.81;;;17.66;38.24
40384;BME280;26097;42.366;23.818;2022-10-18T14:19:18;95038.41;;;17.59;39.28
40384;BME280;26097;42.366;23.818;2022-10-18T14:25:21;95032.25;;;17.38;39.88
40384;BME280;26097;42.366;23.818;2022-10-18T14:28:24;95025.47;;;17.26;40.19
40384;BME280;26097;42.366;23.818;2022-10-18T14:31:25;95033.03;;;17.09;39.80
40384;BME280;26097;42.366;23.818;2022-10-18T14:34:26;95024.63;;;16.94;40.14
40384;BME280;26097;42.366;23.818;2022-10-18T14:37:34;95014.84;;;16.75;39.74
40384;BME280;26097;42.366;23.818;2022-10-18T14:40:38;95014.44;;;16.49;38.44
40384;BME280;26097;42.366;23.818;2022-10-18T14:43:39;95021.00;;;16.33;39.81
40384;BME280;26097;42.366;23.818;2022-10-18T14:46:45;95020.28;;;16.10;40.48
40384;BME280;26097;42.366;23.818;2022-10-18T14:49:46;95016.25;;;15.73;41.35
40384;BME280;26097;42.366;23.818;2022-10-18T14:52:47;95026.25;;;15.35;43.99
40384;BME280;26097;42.366;23.818;2022-10-18T14:55:56;95021.31;;;14.98;44.88
40384;BME280;26097;42.366;23.818;2022-10-18T14:59:02;95017.81;;;14.52;48.20
40384;BME280;26097;42.366;23.818;2022-10-18T15:02:13;95015.34;;;14.03;45.38
40384;BME280;26097;42.366;23.818;2022-10-18T15:08:15;95019.78;;;13.29;47.84
40384;BME280;26097;42.366;23.818;2022-10-18T15:11:16;95018.69;;;13.08;47.18
40384;BME280;26097;42.366;23.818;2022-10-18T15:14:18;95015.94;;;12.72;47.72
40384;BME280;26097;42.366;23.818;2022-10-18T15:17:30;95016.91;;;12.32;48.82
40384;BME280;26097;42.366;23.818;2022-10-18T15:20:34;95013.00;;;11.99;49.28
40384;BME280;26097;42.366;23.818;2022-10-18T15:23:38;95019.38;;;11.67;49.68
40384;BME280;26097;42.366;23.818;2022-10-18T15:26:42;95018.41;;;11.28;50.69
40384;BME280;26097;42.366;23.818;2022-10-18T15:29:43;95014.50;;;10.93;51.10
40384;BME280;26097;42.366;23.818;2022-10-18T15:32:56;95014.16;;;10.56;51.84
40384;BME280;26097;42.366;23.818;2022-10-18T15:36:07;95014.13;;;10.27;52.77
40384;BME280;26097;42.366;23.818;2022-10-18T15:39:20;95011.78;;;9.93;54.38
40384;BME280;26097;42.366;23.818;2022-10-18T15:42:36;95018.06;;;9.58;55.41
40384;BME280;26097;42.366;23.818;2022-10-18T15:45:44;95025.59;;;9.33;54.66
40384;BME280;26097;42.366;23.818;2022-10-18T15:48:46;95026.28;;;9.04;55.58
40384;BME280;26097;42.366;23.818;2022-10-18T15:51:47;95019.91;;;8.78;55.91
40384;BME280;26097;42.366;23.818;2022-10-18T15:54:48;95031.00;;;8.48;56.91
40384;BME280;26097;42.366;23.818;2022-10-18T15:57:48;95021.78;;;8.24;57.60
40384;BME280;26097;42.366;23.818;2022-10-18T16:00:51;95029.75;;;8.04;57.99
40384;BME280;26097;42.366;23.818;2022-10-18T16:03:52;95023.81;;;7.84;59.04
40384;BME280;26097;42.366;23.818;2022-10-18T16:06:54;95024.03;;;7.62;58.99
40384;BME280;26097;42.366;23.818;2022-10-18T16:09:55;95023.34;;;7.40;59.52
40384;BME280;26097;42.366;23.818;2022-10-18T16:12:55;95031.00;;;7.24;60.34
40384;BME280;26097;42.366;23.818;2022-10-18T16:15:55;95036.09;;;7.08;59.74
40384;BME280;26097;42.366;23.818;2022-10-18T16:18:56;95033.84;;;7.00;59.86
40384;BME280;26097;42.366;23.818;2022-10-18T16:21:57;95032.88;;;6.84;60.34
40384;BME280;26097;42.366;23.818;2022-10-18T16:24:57;95030.22;;;6.66;60.86
40384;BME280;26097;42.366;23.818;2022-10-18T16:27:57;95023.16;;;6.51;61.82
40384;BME280;26097;42.366;23.818;2022-10-18T16:31:00;95030.53;;;6.39;62.10
40384;BME280;26097;42.366;23.818;2022-10-18T16:34:01;95027.94;;;6.20;62.56
40384;BME280;26097;42.366;23.818;2022-10-18T16:37:01;95023.56;;;6.02;63.15
40384;BME280;26097;42.366;23.818;2022-10-18T16:40:17;95031.63;;;5.94;63.71
40384;BME280;26097;42.366;23.818;2022-10-18T16:43:20;95038.72;;;5.89;63.85
40384;BME280;26097;42.366;23.818;2022-10-18T16:46:21;95029.66;;;5.78;63.92
40384;BME280;26097;42.366;23.818;2022-10-18T16:49:24;95035.28;;;5.67;64.39
40384;BME280;26097;42.366;23.818;2022-10-18T16:52:24;95025.56;;;5.52;65.47
40384;BME280;26097;42.366;23.818;2022-10-18T16:55:25;95031.69;;;5.49;65.37
40384;BME280;26097;42.366;23.818;2022-10-18T16:58:27;95031.63;;;5.30;66.76
40384;BME280;26097;42.366;23.818;2022-10-18T17:01:27;95031.00;;;5.23;66.33
40384;BME280;26097;42.366;23.818;2022-10-18T17:04:27;95035.34;;;5.23;65.19
40384;BME280;26097;42.366;23.818;2022-10-18T17:07:28;95038.38;;;5.12;66.23
40384;BME280;26097;42.366;23.818;2022-10-18T17:10:28;95042.44;;;4.95;66.40
40384;BME280;26097;42.366;23.818;2022-10-18T17:13:29;95032.56;;;4.83;66.63
40384;BME280;26097;42.366;23.818;2022-10-18T17:16:32;95038.19;;;4.70;66.62
40384;BME280;26097;42.366;23.818;2022-10-18T17:19:32;95037.81;;;4.57;66.56
40384;BME280;26097;42.366;23.818;2022-10-18T17:22:33;95030.00;;;4.59;66.32
40384;BME280;26097;42.366;23.818;2022-10-18T17:25:38;95041.56;;;4.49;65.66
40384;BME280;26097;42.366;23.818;2022-10-18T17:28:38;95039.56;;;4.33;66.85
40384;BME280;26097;42.366;23.818;2022-10-18T17:31:39;95038.94;;;4.26;68.10
40384;BME280;26097;42.366;23.818;2022-10-18T17:34:39;95043.38;;;4.23;66.93
40384;BME280;26097;42.366;23.818;2022-10-18T17:37:40;95048.75;;;4.17;66.63
40384;BME280;26097;42.366;23.818;2022-10-18T17:40:41;95040.53;;;4.05;66.97
40384;BME280;26097;42.366;23.818;2022-10-18T17:43:41;95050.84;;;4.05;65.66
40384;BME280;26097;42.366;23.818;2022-10-18T17:46:42;95042.22;;;4.06;67.01
40384;BME280;26097;42.366;23.818;2022-10-18T17:49:42;95036.16;;;4.07;68.11
40384;BME280;26097;42.366;23.818;2022-10-18T17:52:45;95040.00;;;3.95;69.33
40384;BME280;26097;42.366;23.818;2022-10-18T17:55:46;95043.75;;;3.86;70.38
40384;BME280;26097;42.366;23.818;2022-10-18T17:58:50;95035.97;;;3.88;71.05
40384;BME280;26097;42.366;23.818;2022-10-18T18:01:51;95028.28;;;3.86;72.09
40384;BME280;26097;42.366;23.818;2022-10-18T18:04:53;95042.31;;;3.78;72.94
40384;BME280;26097;42.366;23.818;2022-10-18T18:07:53;95038.44;;;3.66;74.33
40384;BME280;26097;42.366;23.818;2022-10-18T18:10:54;95033.63;;;3.55;75.92
40384;BME280;26097;42.366;23.818;2022-10-18T18:13:55;95032.63;;;3.59;77.72
40384;BME280;26097;42.366;23.818;2022-10-18T18:16:55;95026.81;;;3.52;76.82
40384;BME280;26097;42.366;23.818;2022-10-18T18:19:56;95021.78;;;3.49;78.38
40384;BME280;26097;42.366;23.818;2022-10-18T18:22:56;95021.88;;;3.46;78.92
40384;BME280;26097;42.366;23.818;2022-10-18T18:25:57;95020.09;;;3.48;79.06
40384;BME280;26097;42.366;23.818;2022-10-18T18:28:58;95016.84;;;3.43;78.18
40384;BME280;26097;42.366;23.818;2022-10-18T18:31:59;95014.41;;;3.38;79.47
40384;BME280;26097;42.366;23.818;2022-10-18T18:34:59;95019.53;;;3.40;80.61
40384;BME280;26097;42.366;23.818;2022-10-18T18:38:00;95012.78;;;3.36;80.72